Time;durP1;ratioP1;P1;durP2;ratioP2;P2;SDS_P1;SDS_P2;PMS_P1;PMS_P2;Temp;Humidity;BMP_temperature;BMP_pressure;BME280_temperature;BME280_humidity;BME280_pressure;Samples;Min_cycle;Max_cycle;Signal;HPM_P1;HPM_P2
2023/07/21 00:01:02;;;;;;;6.88;4.05;;;14.00;99.90;;;;;;5090790;28;20403;-62
2023/07/21 00:03:28;;;;;;;8.88;4.45;;;13.90;99.90;;;;;;5091622;28;20079;-62
2023/07/21 00:05:54;;;;;;;9.13;4.50;;;13.90;99.90;;;;;;5091888;28;20032;-62
2023/07/21 00:08:21;;;;;;;7.72;4.45;;;13.80;99.90;;;;;;5091224;28;20051;-62
2023/07/21 00:10:47;;;;;;;6.55;3.92;;;13.80;99.90;;;;;;5090161;28;20048;-62
2023/07/21 00:13:14;;;;;;;9.13;4.65;;;13.80;99.90;;;;;;5091806;28;20046;-62
2023/07/21 00:15:39;;;;;;;7.10;4.15;;;13.70;99.90;;;;;;5088876;28;20473;-63
2023/07/21 00:18:05;;;;;;;6.80;4.60;;;13.70;99.90;;;;;;5091739;28;20100;-62
2023/07/21 00:20:32;;;;;;;8.35;4.22;;;13.60;99.90;;;;;;5094750;28;20496;-62
2023/07/21 00:22:58;;;;;;;7.78;4.75;;;13.70;99.90;;;;;;5094445;28;20107;-62
2023/07/21 00:25:24;;;;;;;8.02;5.05;;;13.60;99.90;;;;;;5094364;28;20396;-62
2023/07/21 00:27:49;;;;;;;7.18;4.57;;;13.60;99.90;;;;;;5094616;28;20036;-63
2023/07/21 00:30:16;;;;;;;9.15;4.85;;;13.60;99.90;;;;;;5094334;28;20032;-62
2023/07/21 00:32:42;;;;;;;7.55;3.78;;;13.60;99.90;;;;;;5076431;28;20060;-62
2023/07/21 00:35:09;;;;;;;6.47;4.28;;;13.60;99.90;;;;;;5094107;28;20054;-62
2023/07/21 00:37:36;;;;;;;7.57;4.20;;;13.50;99.90;;;;;;5094159;28;20509;-62
2023/07/21 00:40:09;;;;;;;10.13;4.00;;;13.50;99.90;;;;;;5076851;28;20076;-63
2023/07/21 00:42:36;;;;;;;7.10;3.97;;;13.40;99.90;;;;;;5093587;28;20028;-62
2023/07/21 00:45:03;;;;;;;6.70;4.22;;;13.40;99.90;;;;;;5092538;28;20070;-62
2023/07/21 00:47:29;;;;;;;7.60;4.32;;;13.30;99.90;;;;;;5094807;28;20047;-62
2023/07/21 00:49:56;;;;;;;7.40;5.13;;;13.30;99.90;;;;;;5092423;28;20106;-62
2023/07/21 00:52:26;;;;;;;7.22;4.50;;;13.20;99.90;;;;;;5093947;28;20405;-62
2023/07/21 00:54:52;;;;;;;10.60;6.13;;;13.20;99.90;;;;;;5094165;28;20048;-62
2023/07/21 00:57:20;;;;;;;6.63;4.43;;;13.20;99.90;;;;;;5093742;28;20047;-62
2023/07/21 00:59:46;;;;;;;7.18;4.13;;;13.20;99.90;;;;;;5092651;28;20051;-62
2023/07/21 01:02:12;;;;;;;7.10;4.50;;;13.20;99.90;;;;;;5093457;28;20090;-62
2023/07/21 01:04:39;;;;;;;10.00;5.75;;;13.20;99.90;;;;;;5126434;27;20032;-62
2023/07/21 01:07:15;;;;;;;7.13;4.28;;;13.10;99.90;;;;;;5076590;28;20047;-62
2023/07/21 01:09:42;;;;;;;7.25;4.47;;;13.10;99.90;;;;;;5092465;28;20097;-63
2023/07/21 01:12:09;;;;;;;8.35;4.32;;;13.10;99.90;;;;;;5093787;28;20035;-62
2023/07/21 01:14:36;;;;;;;8.57;4.80;;;13.10;99.90;;;;;;5093242;28;20086;-62
2023/07/21 01:17:03;;;;;;;9.15;5.07;;;13.10;99.90;;;;;;5092382;28;20157;-62
2023/07/21 01:19:30;;;;;;;8.40;4.20;;;13.00;99.90;;;;;;5075296;28;20051;-62
2023/07/21 01:22:15;;;;;;;8.55;4.88;;;13.10;99.90;;;;;;5094087;28;20035;-63
2023/07/21 01:24:48;;;;;;;6.72;4.00;;;13.10;99.90;;;;;;5093710;28;20032;-62
2023/07/21 01:27:16;;;;;;;7.55;4.40;;;13.10;99.90;;;;;;5093289;28;20492;-63
2023/07/21 01:29:44;;;;;;;7.20;4.35;;;13.10;99.90;;;;;;5092229;28;20043;-62
2023/07/21 01:32:12;;;;;;;10.52;6.00;;;13.10;99.90;;;;;;5092876;28;20073;-62
2023/07/21 01:34:39;;;;;;;8.18;5.32;;;13.10;99.90;;;;;;5093901;28;20036;-62
2023/07/21 01:37:08;;;;;;;6.72;4.15;;;13.10;99.90;;;;;;5093026;28;20039;-62
2023/07/21 01:39:36;;;;;;;8.30;5.18;;;13.10;99.90;;;;;;5093033;28;20101;-62
2023/07/21 01:42:03;;;;;;;8.80;4.55;;;13.10;99.90;;;;;;5092188;28;20492;-62
2023/07/21 01:44:30;;;;;;;8.18;4.28;;;13.00;99.90;;;;;;5091897;28;20106;-62
2023/07/21 01:46:55;;;;;;;6.82;4.20;;;13.00;99.90;;;;;;5091508;28;20048;-62
2023/07/21 01:49:21;;;;;;;8.75;4.25;;;13.00;99.90;;;;;;5093536;28;20078;-62
2023/07/21 01:51:48;;;;;;;9.00;4.07;;;12.90;99.90;;;;;;5092010;28;20127;-62
2023/07/21 01:54:25;;;;;;;7.78;4.22;;;12.90;99.90;;;;;;5091270;28;20069;-62
2023/07/21 01:57:12;;;;;;;7.05;4.32;;;12.90;99.90;;;;;;5093090;28;20051;-62
2023/07/21 01:59:42;;;;;;;8.10;4.63;;;12.90;99.90;;;;;;5092225;28;20489;-62
2023/07/21 02:02:09;;;;;;;11.88;4.65;;;12.90;99.90;;;;;;5091692;28;20093;-62
2023/07/21 02:04:35;;;;;;;7.00;4.00;;;12.90;99.90;;;;;;5093431;28;20097;-62
2023/07/21 02:07:00;;;;;;;7.22;4.35;;;12.80;99.90;;;;;;5093209;28;20036;-62
2023/07/21 02:09:26;;;;;;;6.68;4.28;;;12.80;99.90;;;;;;5092376;28;20040;-62
2023/07/21 02:11:52;;;;;;;8.27;4.40;;;12.80;99.90;;;;;;5092782;28;20114;-63
2023/07/21 02:14:18;;;;;;;8.25;5.20;;;12.70;99.90;;;;;;5092209;28;20036;-63
2023/07/21 02:16:43;;;;;;;7.57;4.95;;;12.70;99.90;;;;;;5125894;27;20481;-62
2023/07/21 02:19:09;;;;;;;6.93;4.00;;;12.70;99.90;;;;;;5126015;27;20044;-62
2023/07/21 02:21:35;;;;;;;9.15;5.07;;;12.70;99.90;;;;;;5092071;28;20514;-62
2023/07/21 02:24:01;;;;;;;7.60;4.40;;;12.70;99.90;;;;;;5091633;28;20043;-62
2023/07/21 02:26:27;;;;;;;7.35;4.55;;;12.60;99.90;;;;;;5093050;28;20508;-63
2023/07/21 02:28:52;;;;;;;7.90;4.03;;;12.60;99.90;;;;;;5090448;28;20048;-62
2023/07/21 02:31:21;;;;;;;8.52;4.53;;;12.50;99.90;;;;;;5125413;27;20063;-62
2023/07/21 02:33:47;;;;;;;8.20;4.28;;;12.50;99.90;;;;;;5125479;27;20046;-62
2023/07/21 02:36:13;;;;;;;7.25;4.53;;;12.50;99.90;;;;;;5090863;28;20431;-62
2023/07/21 02:38:39;;;;;;;8.07;4.38;;;12.60;99.90;;;;;;5092532;28;20028;-62
2023/07/21 02:41:05;;;;;;;7.72;4.28;;;12.50;99.90;;;;;;5092815;28;20062;-62
2023/07/21 02:43:36;;;;;;;7.03;4.22;;;12.60;99.90;;;;;;5089465;28;20040;-62
2023/07/21 02:46:03;;;;;;;7.47;4.18;;;12.60;99.90;;;;;;5125177;27;20040;-62
2023/07/21 02:48:31;;;;;;;8.02;4.40;;;12.60;99.90;;;;;;5092716;28;20088;-62
2023/07/21 02:50:58;;;;;;;7.32;4.00;;;12.60;99.90;;;;;;5090144;28;20052;-62
2023/07/21 02:53:24;;;;;;;8.90;4.68;;;12.50;99.90;;;;;;5091419;28;20178;-62
2023/07/21 02:55:50;;;;;;;8.93;5.05;;;12.50;99.90;;;;;;5091954;28;20028;-62
2023/07/21 02:58:17;;;;;;;9.10;4.50;;;12.50;99.90;;;;;;5090170;28;20530;-62
2023/07/21 03:00:43;;;;;;;7.13;4.13;;;12.50;99.90;;;;;;5091976;28;20488;-62
2023/07/21 03:03:12;;;;;;;7.05;4.28;;;12.50;99.90;;;;;;5092700;28;20034;-62
2023/07/21 03:05:38;;;;;;;9.30;5.13;;;12.50;99.90;;;;;;5090059;28;20036;-62
2023/07/21 03:08:04;;;;;;;8.00;4.63;;;12.50;99.90;;;;;;5091831;28;20066;-62
2023/07/21 03:10:30;;;;;;;6.93;4.00;;;12.50;99.90;;;;;;5091575;28;20122;-62
2023/07/21 03:12:57;;;;;;;7.85;4.18;;;12.50;99.90;;;;;;5090822;28;20044;-62
2023/07/21 03:15:22;;;;;;;7.53;4.30;;;12.40;99.90;;;;;;5092654;28;20415;-62
2023/07/21 03:17:48;;;;;;;6.55;3.97;;;12.40;99.90;;;;;;5106697;28;20101;-62
2023/07/21 03:20:15;;;;;;;6.78;4.25;;;12.40;99.90;;;;;;5092250;28;20043;-62
2023/07/21 03:22:44;;;;;;;7.38;4.13;;;12.40;99.90;;;;;;5073652;28;20078;-63
2023/07/21 03:25:12;;;;;;;7.00;4.07;;;12.50;99.90;;;;;;5090440;28;20043;-62
2023/07/21 03:27:41;;;;;;;9.80;4.07;;;12.50;99.90;;;;;;5091828;28;20043;-62
2023/07/21 03:30:09;;;;;;;10.63;4.70;;;12.50;99.90;;;;;;5091233;28;20130;-61
2023/07/21 03:32:36;;;;;;;8.85;4.45;;;12.50;99.90;;;;;;5089913;28;20048;-62
2023/07/21 03:35:05;;;;;;;8.00;4.13;;;12.50;99.90;;;;;;5090801;28;20062;-62
2023/07/21 03:37:36;;;;;;;9.07;4.35;;;12.50;99.90;;;;;;5090598;28;20108;-62
2023/07/21 03:40:06;;;;;;;6.47;4.10;;;12.50;99.90;;;;;;5091288;28;20443;-62
2023/07/21 03:42:33;;;;;;;9.55;4.63;;;12.50;99.90;;;;;;5090776;28;20044;-62
2023/07/21 03:45:04;;;;;;;8.48;4.32;;;12.50;99.90;;;;;;5092108;28;20491;-61
2023/07/21 03:47:34;;;;;;;7.95;3.80;;;12.40;99.90;;;;;;5090084;28;20123;-62
2023/07/21 03:50:00;;;;;;;10.38;4.70;;;12.40;99.90;;;;;;5091419;28;20064;-62
2023/07/21 03:52:27;;;;;;;9.20;4.32;;;12.40;99.90;;;;;;5090780;28;20122;-62
2023/07/21 03:54:53;;;;;;;13.35;4.82;;;12.40;99.90;;;;;;5093250;28;20169;-62
2023/07/21 03:57:20;;;;;;;9.88;4.43;;;12.40;99.90;;;;;;5095717;28;20118;-62
2023/07/21 03:59:49;;;;;;;7.95;3.80;;;12.40;99.90;;;;;;5094496;28;20044;-62
2023/07/21 04:02:17;;;;;;;10.32;4.65;;;12.40;99.90;;;;;;5094643;28;20046;-61
2023/07/21 04:04:46;;;;;;;9.43;4.30;;;12.40;99.90;;;;;;5095153;28;20119;-62
2023/07/21 04:07:12;;;;;;;6.28;3.80;;;12.40;99.90;;;;;;5093689;28;20054;-62
2023/07/21 04:09:38;;;;;;;8.05;4.50;;;12.40;99.90;;;;;;5095476;28;20043;-62
2023/07/21 04:12:07;;;;;;;9.02;4.25;;;12.40;99.90;;;;;;5128683;27;20040;-62
2023/07/21 04:14:33;;;;;;;7.53;4.55;;;12.40;99.90;;;;;;5094631;28;20036;-62
2023/07/21 04:16:59;;;;;;;7.15;4.20;;;12.40;99.90;;;;;;5094681;28;20039;-62
2023/07/21 04:19:25;;;;;;;10.55;5.20;;;12.50;99.90;;;;;;5128327;27;20123;-62
2023/07/21 04:21:52;;;;;;;8.13;3.78;;;12.40;99.90;;;;;;5076398;28;20054;-62
2023/07/21 04:24:18;;;;;;;7.88;4.55;;;12.50;99.90;;;;;;5094263;28;20048;-62
2023/07/21 04:26:44;;;;;;;9.32;4.45;;;12.50;99.90;;;;;;5093711;28;20165;-62
2023/07/21 04:29:10;;;;;;;8.27;4.20;;;12.50;99.90;;;;;;5094367;28;20044;-62
2023/07/21 04:31:35;;;;;;;6.70;4.07;;;12.60;99.90;;;;;;5095109;28;20044;-62
2023/07/21 04:34:01;;;;;;;10.45;5.75;;;12.60;99.90;;;;;;5127902;27;20052;-62
2023/07/21 04:36:27;;;;;;;6.97;3.83;;;12.70;99.90;;;;;;5093198;28;20044;-62
2023/07/21 04:38:53;;;;;;;7.55;4.88;;;12.70;99.90;;;;;;5094870;28;20046;-62
2023/07/21 04:41:19;;;;;;;8.25;4.13;;;12.80;99.90;;;;;;5095215;28;20158;-62
2023/07/21 04:43:45;;;;;;;9.77;4.70;;;12.90;99.90;;;;;;5092400;28;20036;-62
2023/07/21 04:46:12;;;;;;;7.88;4.22;;;12.90;99.90;;;;;;5093770;28;20119;-62
2023/07/21 04:48:38;;;;;;;6.78;4.13;;;12.90;99.90;;;;;;5076555;28;20047;-62
2023/07/21 04:51:03;;;;;;;9.77;5.25;;;13.00;99.90;;;;;;5092448;28;20052;-62
2023/07/21 04:53:30;;;;;;;9.02;4.78;;;13.10;99.90;;;;;;5127452;27;20408;-62
2023/07/21 04:55:57;;;;;;;10.10;5.50;;;13.10;99.90;;;;;;5094726;28;20040;-62
2023/07/21 04:58:23;;;;;;;10.27;5.07;;;13.20;99.90;;;;;;5093853;28;20036;-61
2023/07/21 05:00:48;;;;;;;9.27;4.53;;;13.20;99.90;;;;;;5093152;28;20055;-62
2023/07/21 05:03:14;;;;;;;10.20;5.07;;;13.20;99.90;;;;;;5126430;27;20036;-61
2023/07/21 05:05:40;;;;;;;10.65;4.80;;;13.30;99.90;;;;;;5126246;27;20078;-61
2023/07/21 05:08:06;;;;;;;11.00;5.47;;;13.40;99.90;;;;;;5094643;28;20546;-61
2023/07/21 05:10:32;;;;;;;9.82;4.88;;;13.40;99.90;;;;;;5092251;28;20048;-61
2023/07/21 05:12:59;;;;;;;7.75;4.65;;;13.50;99.90;;;;;;5093073;28;20032;-62
2023/07/21 05:15:25;;;;;;;7.25;4.43;;;13.50;99.90;;;;;;5076500;28;20074;-62
2023/07/21 05:17:51;;;;;;;7.03;4.50;;;13.60;99.90;;;;;;5074524;28;20040;-62
2023/07/21 05:20:19;;;;;;;8.50;4.38;;;13.60;99.90;;;;;;5094423;28;20043;-62
2023/07/21 05:22:46;;;;;;;7.57;4.47;;;13.60;99.90;;;;;;5093580;28;20561;-61
2023/07/21 05:25:16;;;;;;;7.72;4.35;;;13.70;99.90;;;;;;5093513;28;20044;-61
2023/07/21 05:27:42;;;;;;;8.15;4.32;;;13.70;99.90;;;;;;5092047;28;20040;-62
2023/07/21 05:30:11;;;;;;;9.10;4.78;;;13.80;99.90;;;;;;5092621;28;20061;-61
2023/07/21 05:32:39;;;;;;;9.55;4.85;;;13.80;99.90;;;;;;5089365;28;20545;-62
2023/07/21 05:35:09;;;;;;;8.35;4.75;;;13.90;99.90;;;;;;5094255;28;20035;-62
2023/07/21 05:37:35;;;;;;;9.60;4.50;;;14.00;99.90;;;;;;5092329;28;20047;-61
2023/07/21 05:40:01;;;;;;;8.20;4.40;;;14.10;99.90;;;;;;5091643;28;20044;-61
2023/07/21 05:42:26;;;;;;;10.77;5.38;;;14.30;99.90;;;;;;5092700;28;20107;-62
2023/07/21 05:44:52;;;;;;;6.75;4.07;;;14.50;99.90;;;;;;5093257;28;20036;-62
2023/07/21 05:47:19;;;;;;;8.77;4.88;;;14.60;99.90;;;;;;5093105;28;20082;-62
2023/07/21 05:49:45;;;;;;;10.90;5.07;;;14.70;99.90;;;;;;5093174;28;20055;-62
2023/07/21 05:52:11;;;;;;;9.55;4.63;;;14.80;99.90;;;;;;5084142;28;20055;-62
2023/07/21 05:54:37;;;;;;;9.30;5.00;;;14.90;99.90;;;;;;5088208;28;20089;-61
2023/07/21 05:57:04;;;;;;;7.03;4.32;;;15.00;99.90;;;;;;5071763;28;20036;-62
2023/07/21 05:59:31;;;;;;;8.13;4.47;;;15.00;99.90;;;;;;5088757;28;20389;-62
2023/07/21 06:01:58;;;;;;;9.10;4.95;;;15.10;99.90;;;;;;5090625;28;20461;-61
2023/07/21 06:04:25;;;;;;;7.35;3.67;;;15.10;99.90;;;;;;5089283;28;20044;-61
2023/07/21 06:06:50;;;;;;;7.88;4.35;;;15.30;99.90;;;;;;5070687;28;20572;-62
2023/07/21 06:09:17;;;;;;;7.60;4.35;;;15.40;99.90;;;;;;5103839;27;20072;-61
2023/07/21 06:11:42;;;;;;;6.22;3.55;;;15.60;99.90;;;;;;5084727;28;20754;-61
2023/07/21 06:14:08;;;;;;;5.97;3.63;;;15.70;99.90;;;;;;5085626;28;20051;-61
2023/07/21 06:16:34;;;;;;;7.60;3.70;;;15.90;99.90;;;;;;5087532;28;20077;-61
2023/07/21 06:19:00;;;;;;;9.95;4.00;;;16.00;99.90;;;;;;5089950;28;20362;-62
2023/07/21 06:21:26;;;;;;;6.70;3.67;;;16.10;99.90;;;;;;5088408;28;20040;-62
2023/07/21 06:23:53;;;;;;;6.75;3.60;;;16.30;99.90;;;;;;5072255;28;20036;-62
2023/07/21 06:26:19;;;;;;;9.55;4.38;;;16.30;99.90;;;;;;5090606;28;20085;-62
2023/07/21 06:28:45;;;;;;;7.30;3.70;;;16.50;99.90;;;;;;5088595;28;20439;-62
2023/07/21 06:31:12;;;;;;;8.35;3.58;;;16.60;99.90;;;;;;5089077;28;20051;-62
2023/07/21 06:33:38;;;;;;;8.27;3.22;;;16.80;99.90;;;;;;5087710;28;20046;-61
2023/07/21 06:36:05;;;;;;;7.15;3.50;;;17.00;99.90;;;;;;5089484;28;20122;-62
2023/07/21 06:38:31;;;;;;;5.88;3.58;;;17.10;99.90;;;;;;5088224;28;20083;-61
2023/07/21 06:40:57;;;;;;;5.60;3.22;;;17.10;99.90;;;;;;5088961;28;20485;-61
2023/07/21 06:43:22;;;;;;;8.23;3.30;;;17.10;99.90;;;;;;5071789;28;20489;-62
2023/07/21 06:45:48;;;;;;;8.02;3.22;;;17.10;99.90;;;;;;5089613;28;20040;-62
2023/07/21 06:48:14;;;;;;;6.32;3.38;;;17.00;99.90;;;;;;5090315;28;20044;-62
2023/07/21 06:50:39;;;;;;;7.13;3.55;;;17.00;99.90;;;;;;5120931;27;20048;-61
2023/07/21 06:53:06;;;;;;;5.75;3.42;;;17.00;99.90;;;;;;5089458;28;20101;-62
2023/07/21 06:55:33;;;;;;;6.32;3.58;;;17.00;99.90;;;;;;5089823;28;20094;-62
2023/07/21 06:57:58;;;;;;;6.88;3.22;;;17.00;99.90;;;;;;5089805;28;20040;-62
2023/07/21 07:00:24;;;;;;;5.68;3.05;;;17.00;99.90;;;;;;5089054;28;20048;-62
2023/07/21 07:02:50;;;;;;;5.50;2.90;;;17.00;99.90;;;;;;5070378;28;20071;-62
2023/07/21 07:05:16;;;;;;;7.25;3.20;;;17.00;99.90;;;;;;5088673;28;20400;-61
2023/07/21 07:07:42;;;;;;;7.15;3.30;;;17.00;99.90;;;;;;5088160;28;20040;-61
2023/07/21 07:10:08;;;;;;;5.70;3.13;;;17.00;99.90;;;;;;5088413;28;20059;-61
2023/07/21 07:12:34;;;;;;;5.53;3.15;;;17.10;99.90;;;;;;5086264;28;20043;-61
2023/07/21 07:15:00;;;;;;;7.38;3.45;;;17.10;99.90;;;;;;5088298;28;20381;-61
2023/07/21 07:17:26;;;;;;;6.43;3.15;;;17.20;99.90;;;;;;5090068;28;20188;-61
2023/07/21 07:19:51;;;;;;;5.93;3.42;;;17.30;99.90;;;;;;5091577;28;20086;-61
2023/07/21 07:22:17;;;;;;;9.32;3.58;;;17.40;99.90;;;;;;5091757;28;20039;-62
2023/07/21 07:24:43;;;;;;;6.32;3.92;;;17.60;99.90;;;;;;5122952;28;20044;-61
2023/07/21 07:27:09;;;;;;;5.78;3.33;;;17.60;99.90;;;;;;5092876;28;20178;-61
2023/07/21 07:29:35;;;;;;;6.30;3.15;;;17.60;99.90;;;;;;5092712;28;20044;-62
2023/07/21 07:32:01;;;;;;;6.47;3.63;;;17.60;99.90;;;;;;5095241;28;20535;-62
2023/07/21 07:34:27;;;;;;;6.75;3.33;;;17.60;99.90;;;;;;5094392;28;20040;-62
2023/07/21 07:36:54;;;;;;;5.78;3.70;;;17.70;99.90;;;;;;5077794;28;20059;-61
2023/07/21 07:39:20;;;;;;;7.50;4.47;;;17.80;99.90;;;;;;5077504;28;20048;-61
2023/07/21 07:41:46;;;;;;;6.95;4.25;;;17.90;99.90;;;;;;5095944;28;20037;-62
2023/07/21 07:44:12;;;;;;;6.32;3.92;;;18.00;99.90;;;;;;5094897;28;20134;-62
2023/07/21 07:46:38;;;;;;;6.43;3.72;;;18.20;99.90;;;;;;5094264;28;20039;-62
2023/07/21 07:49:04;;;;;;;6.53;3.80;;;18.40;99.90;;;;;;5095910;28;20055;-62
2023/07/21 07:51:30;;;;;;;6.55;3.83;;;18.50;99.90;;;;;;5094730;28;20115;-61
2023/07/21 07:53:55;;;;;;;7.60;3.25;;;18.60;99.90;;;;;;5095161;28;20074;-61
2023/07/21 07:56:21;;;;;;;5.22;2.40;;;18.50;99.90;;;;;;5094830;28;20063;-62
2023/07/21 07:58:47;;;;;;;5.75;3.05;;;18.40;99.90;;;;;;5095191;28;20098;-62
2023/07/21 08:01:13;;;;;;;5.63;2.70;;;18.40;99.90;;;;;;5095421;28;20447;-61
2023/07/21 08:03:43;;;;;;;4.90;2.63;;;18.40;99.90;;;;;;5095341;28;20028;-61
2023/07/21 08:06:13;;;;;;;4.30;2.53;;;18.40;99.90;;;;;;5095471;28;20044;-62
2023/07/21 08:08:40;;;;;;;5.15;2.55;;;18.40;99.90;;;;;;5094196;28;20085;-62
2023/07/21 08:11:06;;;;;;;4.93;2.42;;;18.40;99.90;;;;;;5095899;28;20036;-61
2023/07/21 08:13:32;;;;;;;7.88;2.78;;;18.50;99.90;;;;;;5093833;28;20400;-61
2023/07/21 08:15:58;;;;;;;4.75;2.40;;;18.60;99.90;;;;;;5090787;28;20047;-60
2023/07/21 08:18:24;;;;;;;5.03;3.20;;;18.80;99.90;;;;;;5094187;28;20397;-61
2023/07/21 08:20:50;;;;;;;4.90;2.35;;;19.00;99.90;;;;;;5092869;28;20524;-61
2023/07/21 08:23:16;;;;;;;4.20;2.42;;;19.00;99.90;;;;;;5095320;28;20177;-62
2023/07/21 08:25:42;;;;;;;3.78;1.80;;;19.00;99.90;;;;;;5094724;28;20064;-62
2023/07/21 08:28:08;;;;;;;4.20;1.70;;;19.00;99.90;;;;;;5094616;28;20047;-61
2023/07/21 08:30:34;;;;;;;4.40;1.60;;;18.90;99.90;;;;;;5095286;28;20046;-62
2023/07/21 08:33:02;;;;;;;3.90;1.88;;;18.80;99.90;;;;;;5093738;28;20154;-62
2023/07/21 08:35:27;;;;;;;4.00;1.65;;;18.80;99.90;;;;;;5094732;28;20451;-62
2023/07/21 08:37:54;;;;;;;4.82;2.22;;;18.80;99.90;;;;;;5095468;28;20119;-62
2023/07/21 08:40:22;;;;;;;4.82;1.80;;;18.70;99.90;;;;;;5095322;28;20166;-62
2023/07/21 08:42:49;;;;;;;4.18;1.75;;;18.70;99.90;;;;;;5075171;28;20378;-62
2023/07/21 08:45:20;;;;;;;3.72;1.63;;;18.70;99.90;;;;;;5093823;28;20118;-62
2023/07/21 08:47:47;;;;;;;3.83;1.83;;;18.70;99.90;;;;;;5093406;28;20497;-62
2023/07/21 08:50:17;;;;;;;4.75;2.15;;;18.60;99.90;;;;;;5092485;28;20044;-62
2023/07/21 08:52:43;;;;;;;3.45;1.60;;;18.60;99.90;;;;;;5092655;28;20051;-61
2023/07/21 08:55:09;;;;;;;4.15;2.00;;;18.60;99.90;;;;;;5094272;28;20047;-62
2023/07/21 08:57:36;;;;;;;3.30;1.60;;;18.70;99.90;;;;;;5093176;28;20048;-62
2023/07/21 09:00:03;;;;;;;6.15;1.80;;;18.80;99.90;;;;;;5094471;28;20511;-62
2023/07/21 09:02:44;;;;;;;4.40;1.92;;;19.00;99.90;;;;;;5092378;28;20047;-62
2023/07/21 09:05:15;;;;;;;4.07;2.03;;;19.30;99.90;;;;;;5095032;28;20039;-62
2023/07/21 09:07:42;;;;;;;3.35;1.63;;;19.50;99.90;;;;;;5093323;28;20048;-62
2023/07/21 09:10:09;;;;;;;4.93;2.05;;;19.50;99.90;;;;;;5094033;28;20051;-62
2023/07/21 09:12:38;;;;;;;5.05;1.48;;;19.50;99.90;;;;;;5093086;28;20047;-62
2023/07/21 09:15:09;;;;;;;3.78;1.67;;;19.50;99.90;;;;;;5092733;28;20042;-62
2023/07/21 09:17:39;;;;;;;4.85;1.92;;;19.40;99.90;;;;;;5093746;28;20039;-62
2023/07/21 09:20:07;;;;;;;4.53;2.30;;;19.40;99.90;;;;;;5095141;28;20064;-62
2023/07/21 09:22:33;;;;;;;4.57;2.60;;;19.20;99.90;;;;;;5093547;28;20524;-62
2023/07/21 09:24:59;;;;;;;6.10;2.92;;;19.10;99.90;;;;;;5091871;28;20143;-62
2023/07/21 09:27:25;;;;;;;5.15;2.53;;;19.00;99.90;;;;;;5093113;28;20040;-62
2023/07/21 09:30:00;;;;;;;5.10;3.03;;;18.90;99.90;;;;;;5092402;28;20493;-62
2023/07/21 09:32:27;;;;;;;5.28;2.83;;;18.90;99.90;;;;;;5093654;28;20456;-63
2023/07/21 09:34:57;;;;;;;6.00;3.38;;;18.80;99.90;;;;;;5094357;28;20048;-62
2023/07/21 09:37:33;;;;;;;5.95;3.38;;;18.80;99.90;;;;;;5126493;27;20504;-61
2023/07/21 09:40:09;;;;;;;6.03;3.50;;;18.70;99.90;;;;;;5086432;28;20832;-61
2023/07/21 09:42:36;;;;;;;6.40;4.07;;;18.60;99.90;;;;;;5092298;28;20489;-60
2023/07/21 09:45:02;;;;;;;7.63;4.45;;;18.50;99.90;;;;;;5092432;28;20528;-60
2023/07/21 09:47:28;;;;;;;6.35;3.65;;;18.40;99.90;;;;;;5084395;28;20032;-60
2023/07/21 09:49:55;;;;;;;6.35;3.78;;;18.40;99.90;;;;;;5085086;28;20843;-62
2023/07/21 09:52:22;;;;;;;6.95;3.75;;;18.40;99.90;;;;;;5090014;28;20131;-62
2023/07/21 09:54:55;;;;;;;7.47;4.10;;;18.30;99.90;;;;;;5091022;28;20040;-62
2023/07/21 09:57:23;;;;;;;5.95;3.60;;;18.30;99.90;;;;;;5090541;28;20149;-61
2023/07/21 09:59:51;;;;;;;6.20;4.00;;;18.30;99.90;;;;;;5087813;28;20469;-62
2023/07/21 10:02:17;;;;;;;5.75;3.47;;;18.40;99.90;;;;;;5089886;28;20626;-61
2023/07/21 10:04:43;;;;;;;5.25;3.03;;;18.50;99.90;;;;;;5089258;28;20043;-62
2023/07/21 10:07:10;;;;;;;7.15;3.75;;;18.60;99.90;;;;;;5089333;28;20119;-61
2023/07/21 10:09:37;;;;;;;6.70;4.07;;;18.80;99.90;;;;;;5090906;28;20050;-61
2023/07/21 10:12:21;;;;;;;7.45;4.22;;;19.00;99.90;;;;;;5090678;28;20118;-62
2023/07/21 10:14:47;;;;;;;6.28;3.15;;;19.20;99.90;;;;;;5090108;28;20050;-61
2023/07/21 10:17:24;;;;;;;7.40;4.25;;;19.40;99.90;;;;;;5091217;28;20040;-61
2023/07/21 10:20:06;;;;;;;8.25;3.38;;;19.50;99.90;;;;;;5088971;28;20207;-61
2023/07/21 10:22:32;;;;;;;6.50;3.75;;;19.70;99.90;;;;;;5089277;28;20051;-61
2023/07/21 10:24:59;;;;;;;7.65;3.42;;;20.00;99.90;;;;;;5088630;28;20485;-61
2023/07/21 10:27:27;;;;;;;6.78;3.13;;;20.20;99.90;;;;;;5090124;28;20044;-60
2023/07/21 10:30:19;;;;;;;4.97;2.60;;;20.40;99.90;;;;;;5090280;28;20036;-61
2023/07/21 10:32:45;;;;;;;4.90;2.30;;;20.40;99.90;;;;;;5089922;28;20051;-61
2023/07/21 10:35:30;;;;;;;5.07;2.40;;;20.40;99.90;;;;;;5088335;28;20044;-61
2023/07/21 10:38:18;;;;;;;5.35;2.25;;;20.30;99.90;;;;;;5088339;28;20059;-62
2023/07/21 10:40:45;;;;;;;3.80;1.58;;;20.30;99.90;;;;;;5087984;28;20043;-61
2023/07/21 10:43:11;;;;;;;5.10;2.53;;;20.40;99.90;;;;;;5089051;28;20043;-60
2023/07/21 10:45:37;;;;;;;4.05;2.20;;;20.40;99.90;;;;;;5089038;28;20048;-61
2023/07/21 10:48:13;;;;;;;4.18;2.15;;;20.40;99.90;;;;;;5087727;28;20040;-60
2023/07/21 10:50:48;;;;;;;4.95;2.03;;;20.40;99.90;;;;;;5087902;28;20090;-62
2023/07/21 10:53:15;;;;;;;4.60;2.28;;;20.40;99.90;;;;;;5087439;28;20063;-62
2023/07/21 10:55:41;;;;;;;3.28;1.60;;;20.30;99.90;;;;;;5085732;28;20115;-62
2023/07/21 10:58:07;;;;;;;3.90;1.70;;;20.20;99.90;;;;;;5089562;28;20131;-61
2023/07/21 11:00:46;;;;;;;4.07;1.95;;;20.10;99.90;;;;;;5088741;28;20036;-62
2023/07/21 11:03:12;;;;;;;4.93;1.80;;;20.10;99.90;;;;;;5069888;28;20594;-62
2023/07/21 11:05:39;;;;;;;4.13;1.90;;;19.90;99.90;;;;;;5086697;28;20044;-62
2023/07/21 11:08:05;;;;;;;4.35;2.33;;;19.80;99.90;;;;;;5089895;28;20090;-61
2023/07/21 11:10:34;;;;;;;7.45;3.10;;;19.50;99.90;;;;;;5085763;28;20491;-62
2023/07/21 11:13:01;;;;;;;6.00;3.03;;;19.10;99.90;;;;;;5087088;28;20083;-62
2023/07/21 11:15:26;;;;;;;7.00;2.95;;;18.80;99.90;;;;;;5089491;28;20341;-62
2023/07/21 11:18:04;;;;;;;6.45;3.00;;;18.50;99.90;;;;;;5088156;28;20055;-62
2023/07/21 11:20:30;;;;;;;7.20;2.85;;;18.30;99.90;;;;;;5089041;28;20497;-62
2023/07/21 11:22:57;;;;;;;10.85;3.22;;;18.20;99.90;;;;;;5088137;28;20138;-62
2023/07/21 11:25:23;;;;;;;13.32;3.60;;;18.10;99.90;;;;;;5089416;28;20044;-62
2023/07/21 11:27:48;;;;;;;7.32;3.00;;;18.00;99.90;;;;;;5089252;28;20047;-62
2023/07/21 11:30:18;;;;;;;9.40;3.63;;;18.00;99.90;;;;;;5088872;28;20047;-62
2023/07/21 11:32:44;;;;;;;8.73;3.92;;;18.00;99.90;;;;;;5088299;28;20055;-61
2023/07/21 11:35:10;;;;;;;9.38;3.42;;;17.90;99.90;;;;;;5090657;28;20036;-61
2023/07/21 11:37:44;;;;;;;8.27;3.67;;;17.70;99.90;;;;;;5073063;28;20484;-61
2023/07/21 11:40:15;;;;;;;10.23;4.43;;;17.60;99.90;;;;;;5090395;28;20032;-61
2023/07/21 11:42:42;;;;;;;7.47;3.03;;;17.40;99.90;;;;;;5108833;28;20039;-61
2023/07/21 11:45:40;;;;;;;10.77;4.05;;;17.40;99.90;;;;;;5090218;28;20414;-64
2023/07/21 11:48:17;;;;;;;8.27;3.42;;;17.40;99.90;;;;;;5092319;28;20044;-64
2023/07/21 11:50:54;;;;;;;6.40;3.25;;;17.30;99.90;;;;;;5088708;28;20056;-62
2023/07/21 11:53:25;;;;;;;13.15;3.70;;;17.30;99.90;;;;;;5072022;28;20048;-62
2023/07/21 11:55:52;;;;;;;9.18;3.92;;;17.20;99.90;;;;;;5089884;28;20062;-62
2023/07/21 11:58:17;;;;;;;8.30;3.22;;;17.20;99.90;;;;;;5073107;28;20048;-61
2023/07/21 12:00:43;;;;;;;7.82;3.50;;;17.10;99.90;;;;;;5091435;28;20161;-61
2023/07/21 12:03:10;;;;;;;7.25;3.70;;;17.10;99.90;;;;;;5092095;28;20517;-62
2023/07/21 12:05:36;;;;;;;10.95;3.67;;;17.00;99.90;;;;;;5090485;28;20036;-62
2023/07/21 12:08:03;;;;;;;7.68;4.45;;;16.90;99.90;;;;;;5090559;28;20040;-62
2023/07/21 12:10:29;;;;;;;7.75;3.22;;;16.90;99.90;;;;;;5090072;28;20039;-62
2023/07/21 12:12:55;;;;;;;6.80;3.58;;;16.70;99.90;;;;;;5090996;28;20394;-61
2023/07/21 12:15:21;;;;;;;7.32;4.05;;;16.70;99.90;;;;;;5092110;28;20484;-62
2023/07/21 12:17:50;;;;;;;7.20;4.00;;;16.60;99.90;;;;;;5093670;28;20051;-61
2023/07/21 12:20:17;;;;;;;10.02;4.97;;;16.60;99.90;;;;;;5094182;28;20133;-61
2023/07/21 12:22:43;;;;;;;7.45;3.97;;;16.60;99.90;;;;;;5081364;28;20044;-61
2023/07/21 12:25:10;;;;;;;11.05;4.40;;;16.60;99.90;;;;;;5083515;28;20048;-61
2023/07/21 12:27:36;;;;;;;7.55;3.70;;;16.50;99.90;;;;;;5092248;28;20054;-61
2023/07/21 12:30:07;;;;;;;7.82;4.30;;;16.50;99.90;;;;;;5091046;28;20080;-60
2023/07/21 12:32:33;;;;;;;11.13;4.88;;;16.40;99.90;;;;;;5092233;28;20048;-61
2023/07/21 12:34:58;;;;;;;9.25;4.60;;;16.30;99.90;;;;;;5109448;27;20048;-60
2023/07/21 12:37:24;;;;;;;10.27;4.57;;;16.30;99.90;;;;;;5091339;28;20047;-60
2023/07/21 12:39:51;;;;;;;8.15;4.20;;;16.40;99.90;;;;;;5074347;28;20536;-60
2023/07/21 12:42:17;;;;;;;10.65;4.10;;;16.30;99.90;;;;;;5091108;28;20050;-60
2023/07/21 12:44:43;;;;;;;8.98;4.70;;;16.20;99.90;;;;;;5089848;28;20036;-61
2023/07/21 12:47:09;;;;;;;7.78;4.25;;;16.30;99.90;;;;;;5090790;28;20550;-60